sensor_id;sensor_type;location;lat;lon;timestamp;temperature;humidity
29663;DHT22;16578;53.266;7.920;2023-03-01T00:00:13;3.70;65.20
29663;DHT22;16578;53.266;7.920;2023-03-01T00:02:38;3.70;65.30
29663;DHT22;16578;53.266;7.920;2023-03-01T00:05:04;3.70;65.30
29663;DHT22;16578;53.266;7.920;2023-03-01T00:07:30;3.60;65.20
29663;DHT22;16578;53.266;7.920;2023-03-01T00:09:55;3.60;65.20
29663;DHT22;16578;53.266;7.920;2023-03-01T00:12:22;3.60;65.20
29663;DHT22;16578;53.266;7.920;2023-03-01T00:14:47;3.60;65.20
29663;DHT22;16578;53.266;7.920;2023-03-01T00:17:13;3.60;65.20
29663;DHT22;16578;53.266;7.920;2023-03-01T00:19:38;3.60;65.30
29663;DHT22;16578;53.266;7.920;2023-03-01T00:22:04;3.60;65.30
29663;DHT22;16578;53.266;7.920;2023-03-01T00:24:29;3.60;65.30
29663;DHT22;16578;53.266;7.920;2023-03-01T00:26:55;3.50;65.40
29663;DHT22;16578;53.266;7.920;2023-03-01T00:29:23;3.50;65.40
29663;DHT22;16578;53.266;7.920;2023-03-01T00:31:48;3.50;65.50
29663;DHT22;16578;53.266;7.920;2023-03-01T00:34:14;3.50;65.40
29663;DHT22;16578;53.266;7.920;2023-03-01T00:36:40;3.50;65.40
29663;DHT22;16578;53.266;7.920;2023-03-01T00:39:10;3.50;65.40
29663;DHT22;16578;53.266;7.920;2023-03-01T00:41:36;3.50;65.40
29663;DHT22;16578;53.266;7.920;2023-03-01T00:44:01;3.40;65.40
29663;DHT22;16578;53.266;7.920;2023-03-01T00:46:27;3.40;65.50
29663;DHT22;16578;53.266;7.920;2023-03-01T00:48:55;3.40;65.60
29663;DHT22;16578;53.266;7.920;2023-03-01T00:51:26;3.40;65.70
29663;DHT22;16578;53.266;7.920;2023-03-01T00:53:54;3.40;65.70
29663;DHT22;16578;53.266;7.920;2023-03-01T00:56:20;3.40;65.90
29663;DHT22;16578;53.266;7.920;2023-03-01T00:58:46;3.30;65.90
29663;DHT22;16578;53.266;7.920;2023-03-01T01:01:15;3.40;65.90
29663;DHT22;16578;53.266;7.920;2023-03-01T01:03:53;3.30;65.80
29663;DHT22;16578;53.266;7.920;2023-03-01T01:06:21;3.30;65.80
29663;DHT22;16578;53.266;7.920;2023-03-01T01:08:47;3.30;65.80
29663;DHT22;16578;53.266;7.920;2023-03-01T01:11:13;3.30;66.00
29663;DHT22;16578;53.266;7.920;2023-03-01T01:13:40;3.30;66.00
29663;DHT22;16578;53.266;7.920;2023-03-01T01:16:06;3.30;65.80
29663;DHT22;16578;53.266;7.920;2023-03-01T01:18:32;3.30;65.80
29663;DHT22;16578;53.266;7.920;2023-03-01T01:20:57;3.30;65.90
29663;DHT22;16578;53.266;7.920;2023-03-01T01:23:23;3.20;66.00
29663;DHT22;16578;53.266;7.920;2023-03-01T01:25:48;3.20;66.10
29663;DHT22;16578;53.266;7.920;2023-03-01T01:28:14;3.20;66.10
29663;DHT22;16578;53.266;7.920;2023-03-01T01:30:39;3.20;66.10
29663;DHT22;16578;53.266;7.920;2023-03-01T01:33:05;3.20;66.10
29663;DHT22;16578;53.266;7.920;2023-03-01T01:35:30;3.20;66.10
29663;DHT22;16578;53.266;7.920;2023-03-01T01:37:56;3.20;66.10
29663;DHT22;16578;53.266;7.920;2023-03-01T01:40:22;3.20;66.00
29663;DHT22;16578;53.266;7.920;2023-03-01T01:42:47;3.20;66.00
29663;DHT22;16578;53.266;7.920;2023-03-01T01:45:36;3.20;66.10
29663;DHT22;16578;53.266;7.920;2023-03-01T01:48:10;3.20;66.10
29663;DHT22;16578;53.266;7.920;2023-03-01T01:50:39;3.20;66.10
29663;DHT22;16578;53.266;7.920;2023-03-01T01:53:09;3.20;66.20
29663;DHT22;16578;53.266;7.920;2023-03-01T01:55:36;3.20;66.30
29663;DHT22;16578;53.266;7.920;2023-03-01T01:58:06;3.20;66.30
29663;DHT22;16578;53.266;7.920;2023-03-01T02:00:33;3.10;66.30
29663;DHT22;16578;53.266;7.920;2023-03-01T02:03:11;3.10;66.40
29663;DHT22;16578;53.266;7.920;2023-03-01T02:08:18;3.10;66.60
29663;DHT22;16578;53.266;7.920;2023-03-01T02:10:45;3.10;66.60
29663;DHT22;16578;53.266;7.920;2023-03-01T02:13:12;3.10;66.80
29663;DHT22;16578;53.266;7.920;2023-03-01T02:15:39;3.10;66.80
29663;DHT22;16578;53.266;7.920;2023-03-01T02:18:07;3.10;66.70
29663;DHT22;16578;53.266;7.920;2023-03-01T02:21:08;3.10;66.60
29663;DHT22;16578;53.266;7.920;2023-03-01T02:23:36;3.10;66.80
29663;DHT22;16578;53.266;7.920;2023-03-01T02:26:16;3.10;66.60
29663;DHT22;16578;53.266;7.920;2023-03-01T02:28:44;3.10;66.70
29663;DHT22;16578;53.266;7.920;2023-03-01T02:31:14;3.10;66.70
29663;DHT22;16578;53.266;7.920;2023-03-01T02:33:59;3.10;66.80
29663;DHT22;16578;53.266;7.920;2023-03-01T02:36:29;3.10;66.90
29663;DHT22;16578;53.266;7.920;2023-03-01T02:38:58;3.10;66.90
29663;DHT22;16578;53.266;7.920;2023-03-01T02:41:24;3.00;66.80
29663;DHT22;16578;53.266;7.920;2023-03-01T02:43:50;2.90;67.10
29663;DHT22;16578;53.266;7.920;2023-03-01T02:46:21;3.00;66.80
29663;DHT22;16578;53.266;7.920;2023-03-01T02:48:50;3.00;66.80
29663;DHT22;16578;53.266;7.920;2023-03-01T02:54:22;3.00;67.10
29663;DHT22;16578;53.266;7.920;2023-03-01T02:56:49;2.90;67.00
29663;DHT22;16578;53.266;7.920;2023-03-01T02:59:19;2.90;66.90
29663;DHT22;16578;53.266;7.920;2023-03-01T03:01:45;2.90;67.00
29663;DHT22;16578;53.266;7.920;2023-03-01T03:04:14;2.90;67.00
29663;DHT22;16578;53.266;7.920;2023-03-01T03:06:45;2.90;66.90
29663;DHT22;16578;53.266;7.920;2023-03-01T03:09:13;2.90;67.00
29663;DHT22;16578;53.266;7.920;2023-03-01T03:11:38;2.90;67.10
29663;DHT22;16578;53.266;7.920;2023-03-01T03:14:06;2.90;67.10
29663;DHT22;16578;53.266;7.920;2023-03-01T03:16:45;2.90;67.10
29663;DHT22;16578;53.266;7.920;2023-03-01T03:19:11;2.80;67.10
29663;DHT22;16578;53.266;7.920;2023-03-01T03:21:37;2.80;67.20
29663;DHT22;16578;53.266;7.920;2023-03-01T03:24:03;2.80;67.30
29663;DHT22;16578;53.266;7.920;2023-03-01T03:26:29;2.80;67.40
29663;DHT22;16578;53.266;7.920;2023-03-01T03:28:55;2.80;67.50
29663;DHT22;16578;53.266;7.920;2023-03-01T03:31:20;2.80;67.60
29663;DHT22;16578;53.266;7.920;2023-03-01T03:33:46;2.70;67.70
29663;DHT22;16578;53.266;7.920;2023-03-01T03:36:16;2.70;67.80
29663;DHT22;16578;53.266;7.920;2023-03-01T03:38:43;2.70;67.90
29663;DHT22;16578;53.266;7.920;2023-03-01T03:41:09;2.70;68.10
29663;DHT22;16578;53.266;7.920;2023-03-01T03:43:37;2.70;68.20
29663;DHT22;16578;53.266;7.920;2023-03-01T03:46:04;2.70;68.10
29663;DHT22;16578;53.266;7.920;2023-03-01T03:48:43;2.70;68.20
29663;DHT22;16578;53.266;7.920;2023-03-01T03:51:11;2.70;68.30
29663;DHT22;16578;53.266;7.920;2023-03-01T03:53:37;2.70;68.20
29663;DHT22;16578;53.266;7.920;2023-03-01T03:56:02;2.70;68.10
29663;DHT22;16578;53.266;7.920;2023-03-01T03:58:28;2.70;68.10
29663;DHT22;16578;53.266;7.920;2023-03-01T04:00:57;2.60;68.00
29663;DHT22;16578;53.266;7.920;2023-03-01T04:03:24;2.70;68.00
29663;DHT22;16578;53.266;7.920;2023-03-01T04:05:51;2.60;67.90
29663;DHT22;16578;53.266;7.920;2023-03-01T04:08:18;2.60;67.90
29663;DHT22;16578;53.266;7.920;2023-03-01T04:10:47;2.60;67.90
29663;DHT22;16578;53.266;7.920;2023-03-01T04:13:19;2.50;67.80
29663;DHT22;16578;53.266;7.920;2023-03-01T04:15:50;2.50;67.80
29663;DHT22;16578;53.266;7.920;2023-03-01T04:18:18;2.50;67.80
29663;DHT22;16578;53.266;7.920;2023-03-01T04:20:44;2.50;67.90
29663;DHT22;16578;53.266;7.920;2023-03-01T04:23:11;2.40;68.00
29663;DHT22;16578;53.266;7.920;2023-03-01T04:25:45;2.40;67.80
29663;DHT22;16578;53.266;7.920;2023-03-01T04:28:11;2.40;67.80
29663;DHT22;16578;53.266;7.920;2023-03-01T04:30:38;2.40;67.90
29663;DHT22;16578;53.266;7.920;2023-03-01T04:33:08;2.40;68.10
29663;DHT22;16578;53.266;7.920;2023-03-01T04:35:35;2.40;68.20
29663;DHT22;16578;53.266;7.920;2023-03-01T04:38:02;2.40;68.30
29663;DHT22;16578;53.266;7.920;2023-03-01T04:40:28;2.40;68.50
29663;DHT22;16578;53.266;7.920;2023-03-01T04:42:53;2.50;68.60
29663;DHT22;16578;53.266;7.920;2023-03-01T04:45:19;2.50;68.50
29663;DHT22;16578;53.266;7.920;2023-03-01T04:47:46;2.50;68.40
29663;DHT22;16578;53.266;7.920;2023-03-01T04:50:16;2.50;68.30
29663;DHT22;16578;53.266;7.920;2023-03-01T04:52:43;2.50;68.30
29663;DHT22;16578;53.266;7.920;2023-03-01T04:55:10;2.50;68.40
29663;DHT22;16578;53.266;7.920;2023-03-01T04:57:36;2.50;68.50
29663;DHT22;16578;53.266;7.920;2023-03-01T05:00:02;2.40;68.60
29663;DHT22;16578;53.266;7.920;2023-03-01T05:02:55;2.50;68.60
29663;DHT22;16578;53.266;7.920;2023-03-01T05:05:24;2.40;68.50
29663;DHT22;16578;53.266;7.920;2023-03-01T05:07:51;2.40;68.50
29663;DHT22;16578;53.266;7.920;2023-03-01T05:10:17;2.40;68.50
29663;DHT22;16578;53.266;7.920;2023-03-01T05:12:43;2.40;68.50
29663;DHT22;16578;53.266;7.920;2023-03-01T05:15:08;2.40;68.50
29663;DHT22;16578;53.266;7.920;2023-03-01T05:17:34;2.40;68.60
29663;DHT22;16578;53.266;7.920;2023-03-01T05:20:00;2.40;68.70
29663;DHT22;16578;53.266;7.920;2023-03-01T05:22:26;2.30;68.70
29663;DHT22;16578;53.266;7.920;2023-03-01T05:24:52;2.30;68.90
29663;DHT22;16578;53.266;7.920;2023-03-01T05:27:19;2.30;68.90
29663;DHT22;16578;53.266;7.920;2023-03-01T05:29:47;2.30;68.80
29663;DHT22;16578;53.266;7.920;2023-03-01T05:32:13;2.20;68.80
29663;DHT22;16578;53.266;7.920;2023-03-01T05:34:41;2.30;68.80
29663;DHT22;16578;53.266;7.920;2023-03-01T05:37:07;2.20;68.80
29663;DHT22;16578;53.266;7.920;2023-03-01T05:39:33;2.20;68.80
29663;DHT22;16578;53.266;7.920;2023-03-01T05:42:00;2.10;68.70
29663;DHT22;16578;53.266;7.920;2023-03-01T05:44:27;2.10;68.90
29663;DHT22;16578;53.266;7.920;2023-03-01T05:46:54;2.00;68.90
29663;DHT22;16578;53.266;7.920;2023-03-01T05:49:20;2.00;69.00
29663;DHT22;16578;53.266;7.920;2023-03-01T05:51:51;2.00;69.30
29663;DHT22;16578;53.266;7.920;2023-03-01T05:54:17;2.00;69.60
29663;DHT22;16578;53.266;7.920;2023-03-01T05:56:43;2.00;69.50
29663;DHT22;16578;53.266;7.920;2023-03-01T05:59:09;2.00;69.50
29663;DHT22;16578;53.266;7.920;2023-03-01T06:01:35;2.00;69.50
29663;DHT22;16578;53.266;7.920;2023-03-01T06:04:01;2.00;69.50
29663;DHT22;16578;53.266;7.920;2023-03-01T06:06:27;2.00;69.60
29663;DHT22;16578;53.266;7.920;2023-03-01T06:08:53;2.00;69.60
29663;DHT22;16578;53.266;7.920;2023-03-01T06:11:20;2.00;69.60
29663;DHT22;16578;53.266;7.920;2023-03-01T06:13:46;1.90;69.50
29663;DHT22;16578;53.266;7.920;2023-03-01T06:16:12;1.90;69.50
29663;DHT22;16578;53.266;7.920;2023-03-01T06:18:38;1.90;69.50
29663;DHT22;16578;53.266;7.920;2023-03-01T06:21:04;1.90;69.50
29663;DHT22;16578;53.266;7.920;2023-03-01T06:23:30;1.90;69.60
29663;DHT22;16578;53.266;7.920;2023-03-01T06:25:55;1.80;69.50
29663;DHT22;16578;53.266;7.920;2023-03-01T06:28:21;1.80;69.60
29663;DHT22;16578;53.266;7.920;2023-03-01T06:30:47;1.80;69.60
29663;DHT22;16578;53.266;7.920;2023-03-01T06:33:13;1.80;69.80
29663;DHT22;16578;53.266;7.920;2023-03-01T06:35:39;1.70;69.80
29663;DHT22;16578;53.266;7.920;2023-03-01T06:38:05;1.80;69.80
29663;DHT22;16578;53.266;7.920;2023-03-01T06:40:31;1.70;69.90
29663;DHT22;16578;53.266;7.920;2023-03-01T06:42:58;1.80;70.10
29663;DHT22;16578;53.266;7.920;2023-03-01T06:45:24;1.80;70.10
29663;DHT22;16578;53.266;7.920;2023-03-01T06:47:50;1.80;70.20
29663;DHT22;16578;53.266;7.920;2023-03-01T06:50:17;1.80;70.20
29663;DHT22;16578;53.266;7.920;2023-03-01T06:52:42;1.80;70.20
29663;DHT22;16578;53.266;7.920;2023-03-01T06:55:10;1.80;70.30
29663;DHT22;16578;53.266;7.920;2023-03-01T06:57:36;1.80;70.30
29663;DHT22;16578;53.266;7.920;2023-03-01T07:00:03;1.90;70.40
29663;DHT22;16578;53.266;7.920;2023-03-01T07:02:29;1.80;70.30
29663;DHT22;16578;53.266;7.920;2023-03-01T07:04:54;1.80;70.40
29663;DHT22;16578;53.266;7.920;2023-03-01T07:07:20;1.90;70.50
29663;DHT22;16578;53.266;7.920;2023-03-01T07:09:46;1.90;70.70
29663;DHT22;16578;53.266;7.920;2023-03-01T07:12:13;1.90;70.70
29663;DHT22;16578;53.266;7.920;2023-03-01T07:14:38;1.90;70.80
29663;DHT22;16578;53.266;7.920;2023-03-01T07:17:04;1.90;71.00
29663;DHT22;16578;53.266;7.920;2023-03-01T07:19:30;1.90;71.10
29663;DHT22;16578;53.266;7.920;2023-03-01T07:21:55;1.90;71.30
29663;DHT22;16578;53.266;7.920;2023-03-01T07:24:21;2.00;71.40
29663;DHT22;16578;53.266;7.920;2023-03-01T07:26:51;2.00;71.50
29663;DHT22;16578;53.266;7.920;2023-03-01T07:29:17;2.10;71.60
29663;DHT22;16578;53.266;7.920;2023-03-01T07:31:43;2.10;71.60
29663;DHT22;16578;53.266;7.920;2023-03-01T07:34:08;2.10;71.70
29663;DHT22;16578;53.266;7.920;2023-03-01T07:36:34;2.20;71.90
29663;DHT22;16578;53.266;7.920;2023-03-01T07:39:00;2.30;71.90
29663;DHT22;16578;53.266;7.920;2023-03-01T07:41:27;2.30;71.80
29663;DHT22;16578;53.266;7.920;2023-03-01T07:43:53;2.40;71.90
29663;DHT22;16578;53.266;7.920;2023-03-01T07:46:18;2.50;72.00
29663;DHT22;16578;53.266;7.920;2023-03-01T07:48:44;2.50;71.90
29663;DHT22;16578;53.266;7.920;2023-03-01T07:51:10;2.60;71.90
29663;DHT22;16578;53.266;7.920;2023-03-01T07:53:36;2.60;71.80
29663;DHT22;16578;53.266;7.920;2023-03-01T07:56:12;2.70;71.80
29663;DHT22;16578;53.266;7.920;2023-03-01T07:58:41;2.80;71.90
29663;DHT22;16578;53.266;7.920;2023-03-01T08:01:10;2.80;71.90
29663;DHT22;16578;53.266;7.920;2023-03-01T08:03:37;2.80;71.90
29663;DHT22;16578;53.266;7.920;2023-03-01T08:06:05;2.90;72.00
29663;DHT22;16578;53.266;7.920;2023-03-01T08:08:31;3.00;72.10
29663;DHT22;16578;53.266;7.920;2023-03-01T08:11:01;3.00;72.50
29663;DHT22;16578;53.266;7.920;2023-03-01T08:13:28;3.10;72.10
29663;DHT22;16578;53.266;7.920;2023-03-01T08:15:53;3.20;72.20
29663;DHT22;16578;53.266;7.920;2023-03-01T08:18:20;3.30;72.30
29663;DHT22;16578;53.266;7.920;2023-03-01T08:20:46;3.30;73.20
29663;DHT22;16578;53.266;7.920;2023-03-01T08:23:12;3.40;72.30
29663;DHT22;16578;53.266;7.920;2023-03-01T08:25:37;3.40;72.30
29663;DHT22;16578;53.266;7.920;2023-03-01T08:28:03;3.50;72.30
29663;DHT22;16578;53.266;7.920;2023-03-01T08:30:29;3.60;72.30
29663;DHT22;16578;53.266;7.920;2023-03-01T08:32:55;3.60;72.20
29663;DHT22;16578;53.266;7.920;2023-03-01T08:35:21;3.70;72.20
29663;DHT22;16578;53.266;7.920;2023-03-01T08:37:46;3.70;72.10
29663;DHT22;16578;53.266;7.920;2023-03-01T08:40:12;3.80;72.00
29663;DHT22;16578;53.266;7.920;2023-03-01T08:42:39;3.90;72.00
29663;DHT22;16578;53.266;7.920;2023-03-01T08:45:05;3.90;71.90
29663;DHT22;16578;53.266;7.920;2023-03-01T08:47:31;3.90;71.80
29663;DHT22;16578;53.266;7.920;2023-03-01T08:49:59;4.00;72.00
29663;DHT22;16578;53.266;7.920;2023-03-01T08:52:24;4.10;72.10
29663;DHT22;16578;53.266;7.920;2023-03-01T08:54:51;4.10;72.10
29663;DHT22;16578;53.266;7.920;2023-03-01T08:57:16;4.20;72.20
29663;DHT22;16578;53.266;7.920;2023-03-01T08:59:42;4.20;72.10
29663;DHT22;16578;53.266;7.920;2023-03-01T09:02:13;4.30;72.20
29663;DHT22;16578;53.266;7.920;2023-03-01T09:04:39;4.30;72.20
29663;DHT22;16578;53.266;7.920;2023-03-01T09:07:06;4.40;72.20
29663;DHT22;16578;53.266;7.920;2023-03-01T09:09:32;4.40;72.30
29663;DHT22;16578;53.266;7.920;2023-03-01T09:11:57;4.50;72.50
29663;DHT22;16578;53.266;7.920;2023-03-01T09:14:23;4.50;72.70
29663;DHT22;16578;53.266;7.920;2023-03-01T09:16:48;4.60;72.80
29663;DHT22;16578;53.266;7.920;2023-03-01T09:19:14;4.70;72.80
29663;DHT22;16578;53.266;7.920;2023-03-01T09:21:40;4.80;72.90
29663;DHT22;16578;53.266;7.920;2023-03-01T09:24:08;4.80;73.00
29663;DHT22;16578;53.266;7.920;2023-03-01T09:26:36;4.90;72.90
29663;DHT22;16578;53.266;7.920;2023-03-01T09:29:02;5.00;72.90
29663;DHT22;16578;53.266;7.920;2023-03-01T09:31:28;5.00;72.90
29663;DHT22;16578;53.266;7.920;2023-03-01T09:33:54;5.10;72.90
29663;DHT22;16578;53.266;7.920;2023-03-01T09:36:22;5.10;72.90
29663;DHT22;16578;53.266;7.920;2023-03-01T09:38:49;5.20;73.00
29663;DHT22;16578;53.266;7.920;2023-03-01T09:44:01;5.30;73.10
29663;DHT22;16578;53.266;7.920;2023-03-01T09:46:43;5.40;72.90
29663;DHT22;16578;53.266;7.920;2023-03-01T09:49:14;5.50;72.80
29663;DHT22;16578;53.266;7.920;2023-03-01T09:51:42;5.60;72.70
29663;DHT22;16578;53.266;7.920;2023-03-01T09:54:09;5.70;72.70
29663;DHT22;16578;53.266;7.920;2023-03-01T10:02:28;5.90;72.60
29663;DHT22;16578;53.266;7.920;2023-03-01T10:05:03;6.00;72.60
29663;DHT22;16578;53.266;7.920;2023-03-01T10:10:38;6.10;72.40
29663;DHT22;16578;53.266;7.920;2023-03-01T10:13:21;6.20;72.30
29663;DHT22;16578;53.266;7.920;2023-03-01T10:15:55;6.30;72.30
29663;DHT22;16578;53.266;7.920;2023-03-01T10:18:30;6.40;72.30
29663;DHT22;16578;53.266;7.920;2023-03-01T10:21:20;6.50;72.00
29663;DHT22;16578;53.266;7.920;2023-03-01T10:23:46;6.60;71.60
29663;DHT22;16578;53.266;7.920;2023-03-01T10:26:28;6.60;71.50
29663;DHT22;16578;53.266;7.920;2023-03-01T10:29:02;6.80;71.50
29663;DHT22;16578;53.266;7.920;2023-03-01T10:31:50;6.80;71.40
29663;DHT22;16578;53.266;7.920;2023-03-01T10:34:28;6.90;71.50
29663;DHT22;16578;53.266;7.920;2023-03-01T10:37:15;7.00;71.40
29663;DHT22;16578;53.266;7.920;2023-03-01T10:40:01;7.10;71.00
29663;DHT22;16578;53.266;7.920;2023-03-01T10:42:38;7.30;70.90
29663;DHT22;16578;53.266;7.920;2023-03-01T10:45:32;7.30;70.60
29663;DHT22;16578;53.266;7.920;2023-03-01T10:48:19;7.40;70.10
29663;DHT22;16578;53.266;7.920;2023-03-01T10:50:49;7.60;70.10
29663;DHT22;16578;53.266;7.920;2023-03-01T10:55:46;7.70;69.40
29663;DHT22;16578;53.266;7.920;2023-03-01T11:00:52;7.90;69.00
29663;DHT22;16578;53.266;7.920;2023-03-01T11:03:25;7.90;68.80
29663;DHT22;16578;53.266;7.920;2023-03-01T11:06:04;8.00;69.00
29663;DHT22;16578;53.266;7.920;2023-03-01T11:08:44;8.10;68.90
29663;DHT22;16578;53.266;7.920;2023-03-01T11:11:34;8.10;68.50
29663;DHT22;16578;53.266;7.920;2023-03-01T11:14:07;8.30;68.40
29663;DHT22;16578;53.266;7.920;2023-03-01T11:16:36;8.30;68.10
29663;DHT22;16578;53.266;7.920;2023-03-01T11:21:41;8.50;67.10
29663;DHT22;16578;53.266;7.920;2023-03-01T11:24:13;8.50;67.00
29663;DHT22;16578;53.266;7.920;2023-03-01T11:26:47;8.60;66.70
29663;DHT22;16578;53.266;7.920;2023-03-01T11:29:21;8.70;66.70
29663;DHT22;16578;53.266;7.920;2023-03-01T11:31:51;8.70;66.60
29663;DHT22;16578;53.266;7.920;2023-03-01T11:34:23;8.80;66.50
29663;DHT22;16578;53.266;7.920;2023-03-01T11:36:59;8.90;66.40
29663;DHT22;16578;53.266;7.920;2023-03-01T11:42:20;9.00;66.10
29663;DHT22;16578;53.266;7.920;2023-03-01T11:44:49;9.10;65.80
29663;DHT22;16578;53.266;7.920;2023-03-01T12:11:39;9.50;64.30
29663;DHT22;16578;53.266;7.920;2023-03-01T12:17:15;9.50;63.70
29663;DHT22;16578;53.266;7.920;2023-03-01T12:36:06;9.60;63.20
29663;DHT22;16578;53.266;7.920;2023-03-01T12:39:06;9.70;63.30
29663;DHT22;16578;53.266;7.920;2023-03-01T12:41:53;9.70;62.80
29663;DHT22;16578;53.266;7.920;2023-03-01T12:50:13;9.70;62.30
29663;DHT22;16578;53.266;7.920;2023-03-01T12:52:55;9.70;62.70
29663;DHT22;16578;53.266;7.920;2023-03-01T12:55:34;9.70;62.50
29663;DHT22;16578;53.266;7.920;2023-03-01T12:58:19;9.80;62.60
29663;DHT22;16578;53.266;7.920;2023-03-01T13:04:03;9.70;62.30
29663;DHT22;16578;53.266;7.920;2023-03-01T13:06:47;9.80;62.50
29663;DHT22;16578;53.266;7.920;2023-03-01T13:11:57;9.80;62.70
29663;DHT22;16578;53.266;7.920;2023-03-01T13:16:52;9.90;62.80
29663;DHT22;16578;53.266;7.920;2023-03-01T13:19:23;9.80;62.90
29663;DHT22;16578;53.266;7.920;2023-03-01T13:21:51;9.90;62.90
29663;DHT22;16578;53.266;7.920;2023-03-01T13:24:40;9.90;62.90
29663;DHT22;16578;53.266;7.920;2023-03-01T13:32:29;9.90;62.90
29663;DHT22;16578;53.266;7.920;2023-03-01T13:35:42;9.90;62.90
29663;DHT22;16578;53.266;7.920;2023-03-01T13:37:43;9.90;63.10
29663;DHT22;16578;53.266;7.920;2023-03-01T13:42:48;10.00;63.00
29663;DHT22;16578;53.266;7.920;2023-03-01T13:45:19;10.00;63.10
29663;DHT22;16578;53.266;7.920;2023-03-01T13:47:47;10.00;63.20
29663;DHT22;16578;53.266;7.920;2023-03-01T13:50:23;10.10;63.30
29663;DHT22;16578;53.266;7.920;2023-03-01T13:52:59;10.10;63.30
29663;DHT22;16578;53.266;7.920;2023-03-01T13:55:44;10.10;63.30
29663;DHT22;16578;53.266;7.920;2023-03-01T13:58:50;10.10;63.30
29663;DHT22;16578;53.266;7.920;2023-03-01T14:01:29;10.10;63.50
29663;DHT22;16578;53.266;7.920;2023-03-01T14:03:58;10.10;63.50
29663;DHT22;16578;53.266;7.920;2023-03-01T14:06:26;10.10;63.70
29663;DHT22;16578;53.266;7.920;2023-03-01T14:09:03;10.10;63.70
29663;DHT22;16578;53.266;7.920;2023-03-01T14:17:10;10.10;63.80
29663;DHT22;16578;53.266;7.920;2023-03-01T14:19:38;10.10;63.90
29663;DHT22;16578;53.266;7.920;2023-03-01T14:24:49;10.10;64.00
29663;DHT22;16578;53.266;7.920;2023-03-01T14:27:15;10.10;64.10
29663;DHT22;16578;53.266;7.920;2023-03-01T14:29:41;10.10;64.30
29663;DHT22;16578;53.266;7.920;2023-03-01T14:32:21;10.20;64.40
29663;DHT22;16578;53.266;7.920;2023-03-01T14:34:49;10.20;64.40
29663;DHT22;16578;53.266;7.920;2023-03-01T14:37:28;10.20;64.30
29663;DHT22;16578;53.266;7.920;2023-03-01T14:39:55;10.20;64.40
29663;DHT22;16578;53.266;7.920;2023-03-01T14:42:23;10.20;64.50
29663;DHT22;16578;53.266;7.920;2023-03-01T14:44:51;10.30;64.50
29663;DHT22;16578;53.266;7.920;2023-03-01T14:47:38;10.30;64.50
29663;DHT22;16578;53.266;7.920;2023-03-01T14:50:07;10.30;64.60
29663;DHT22;16578;53.266;7.920;2023-03-01T14:52:39;10.30;64.60
29663;DHT22;16578;53.266;7.920;2023-03-01T14:55:32;10.30;64.60
29663;DHT22;16578;53.266;7.920;2023-03-01T14:58:02;10.30;64.50
29663;DHT22;16578;53.266;7.920;2023-03-01T15:00:30;10.30;64.50
29663;DHT22;16578;53.266;7.920;2023-03-01T15:03:00;10.30;64.50
29663;DHT22;16578;53.266;7.920;2023-03-01T15:05:33;10.20;64.40
29663;DHT22;16578;53.266;7.920;2023-03-01T15:08:00;10.30;64.60
29663;DHT22;16578;53.266;7.920;2023-03-01T15:10:29;10.30;64.70
29663;DHT22;16578;53.266;7.920;2023-03-01T15:12:55;10.20;64.70
29663;DHT22;16578;53.266;7.920;2023-03-01T15:15:32;10.20;64.80
29663;DHT22;16578;53.266;7.920;2023-03-01T15:18:00;10.30;65.00
29663;DHT22;16578;53.266;7.920;2023-03-01T15:20:28;10.30;65.00
29663;DHT22;16578;53.266;7.920;2023-03-01T15:22:56;10.20;64.90
29663;DHT22;16578;53.266;7.920;2023-03-01T15:25:27;10.20;64.80
29663;DHT22;16578;53.266;7.920;2023-03-01T15:27:55;10.20;65.70
29663;DHT22;16578;53.266;7.920;2023-03-01T15:30:33;10.20;64.80
29663;DHT22;16578;53.266;7.920;2023-03-01T15:33:20;10.20;64.90
29663;DHT22;16578;53.266;7.920;2023-03-01T15:35:55;10.10;64.80
29663;DHT22;16578;53.266;7.920;2023-03-01T15:41:26;10.10;64.90
29663;DHT22;16578;53.266;7.920;2023-03-01T15:43:54;10.10;65.10
29663;DHT22;16578;53.266;7.920;2023-03-01T15:49:03;10.10;65.30
29663;DHT22;16578;53.266;7.920;2023-03-01T15:51:34;10.10;65.30
29663;DHT22;16578;53.266;7.920;2023-03-01T15:54:18;10.00;65.40
29663;DHT22;16578;53.266;7.920;2023-03-01T15:56:45;10.00;65.50
29663;DHT22;16578;53.266;7.920;2023-03-01T15:59:11;10.00;65.60
29663;DHT22;16578;53.266;7.920;2023-03-01T16:01:40;9.90;65.60
29663;DHT22;16578;53.266;7.920;2023-03-01T16:04:06;9.90;65.70
29663;DHT22;16578;53.266;7.920;2023-03-01T16:06:31;9.90;65.70
29663;DHT22;16578;53.266;7.920;2023-03-01T16:08:57;9.90;65.90
29663;DHT22;16578;53.266;7.920;2023-03-01T16:11:23;9.90;66.00
29663;DHT22;16578;53.266;7.920;2023-03-01T16:13:49;9.80;66.00
29663;DHT22;16578;53.266;7.920;2023-03-01T16:16:16;9.80;66.00
29663;DHT22;16578;53.266;7.920;2023-03-01T16:18:43;9.80;66.10
29663;DHT22;16578;53.266;7.920;2023-03-01T16:21:13;9.70;66.10
29663;DHT22;16578;53.266;7.920;2023-03-01T16:23:41;9.70;66.30
29663;DHT22;16578;53.266;7.920;2023-03-01T16:26:06;9.70;66.40
29663;DHT22;16578;53.266;7.920;2023-03-01T16:28:32;9.60;66.40
29663;DHT22;16578;53.266;7.920;2023-03-01T16:30:57;9.60;66.50
29663;DHT22;16578;53.266;7.920;2023-03-01T16:33:24;9.60;67.50
29663;DHT22;16578;53.266;7.920;2023-03-01T16:35:49;9.50;66.70
29663;DHT22;16578;53.266;7.920;2023-03-01T16:38:15;9.50;66.80
29663;DHT22;16578;53.266;7.920;2023-03-01T16:40:47;9.40;66.80
29663;DHT22;16578;53.266;7.920;2023-03-01T16:43:13;9.40;67.20
29663;DHT22;16578;53.266;7.920;2023-03-01T16:45:38;9.30;67.20
29663;DHT22;16578;53.266;7.920;2023-03-01T16:48:06;9.20;67.40
29663;DHT22;16578;53.266;7.920;2023-03-01T16:50:31;9.20;67.60
29663;DHT22;16578;53.266;7.920;2023-03-01T16:52:57;9.20;67.60
29663;DHT22;16578;53.266;7.920;2023-03-01T16:55:22;9.10;67.60
29663;DHT22;16578;53.266;7.920;2023-03-01T16:57:48;9.00;67.70
29663;DHT22;16578;53.266;7.920;2023-03-01T17:00:14;9.00;67.90
29663;DHT22;16578;53.266;7.920;2023-03-01T17:02:41;8.90;67.90
29663;DHT22;16578;53.266;7.920;2023-03-01T17:05:07;8.80;68.00
29663;DHT22;16578;53.266;7.920;2023-03-01T17:07:33;8.80;68.30
29663;DHT22;16578;53.266;7.920;2023-03-01T17:10:01;8.70;68.30
29663;DHT22;16578;53.266;7.920;2023-03-01T17:12:26;8.60;68.60
29663;DHT22;16578;53.266;7.920;2023-03-01T17:14:53;8.60;68.70
29663;DHT22;16578;53.266;7.920;2023-03-01T17:17:18;8.50;68.90
29663;DHT22;16578;53.266;7.920;2023-03-01T17:19:44;8.40;69.50
29663;DHT22;16578;53.266;7.920;2023-03-01T17:22:10;8.40;69.50
29663;DHT22;16578;53.266;7.920;2023-03-01T17:24:38;8.30;69.50
29663;DHT22;16578;53.266;7.920;2023-03-01T17:27:05;8.20;69.60
29663;DHT22;16578;53.266;7.920;2023-03-01T17:29:31;8.20;69.90
29663;DHT22;16578;53.266;7.920;2023-03-01T17:31:57;8.10;70.10
29663;DHT22;16578;53.266;7.920;2023-03-01T17:34:23;8.10;70.30
29663;DHT22;16578;53.266;7.920;2023-03-01T17:36:49;8.10;70.60
29663;DHT22;16578;53.266;7.920;2023-03-01T17:39:17;8.10;70.80
29663;DHT22;16578;53.266;7.920;2023-03-01T17:41:44;8.10;71.00
29663;DHT22;16578;53.266;7.920;2023-03-01T17:44:10;8.10;71.10